sensor_id;sensor_type;location;lat;lon;timestamp;temperature;humidity
25302;DHT22;13243;50.888;4.724;2023-04-24T00:02:24;9.90;99.90
25302;DHT22;13243;50.888;4.724;2023-04-24T00:07:28;9.90;99.90
25302;DHT22;13243;50.888;4.724;2023-04-24T00:12:29;9.90;99.90
25302;DHT22;13243;50.888;4.724;2023-04-24T00:17:32;9.90;99.90
25302;DHT22;13243;50.888;4.724;2023-04-24T00:22:34;9.90;99.90
25302;DHT22;13243;50.888;4.724;2023-04-24T00:27:35;9.90;99.90
25302;DHT22;13243;50.888;4.724;2023-04-24T00:32:38;9.80;99.90
25302;DHT22;13243;50.888;4.724;2023-04-24T00:37:40;9.90;99.90
25302;DHT22;13243;50.888;4.724;2023-04-24T00:42:43;9.80;99.90
25302;DHT22;13243;50.888;4.724;2023-04-24T00:47:45;9.90;99.90
25302;DHT22;13243;50.888;4.724;2023-04-24T00:52:48;9.70;99.90
25302;DHT22;13243;50.888;4.724;2023-04-24T00:57:50;9.60;99.90
25302;DHT22;13243;50.888;4.724;2023-04-24T01:02:53;9.60;99.90
25302;DHT22;13243;50.888;4.724;2023-04-24T01:07:55;9.70;99.90
25302;DHT22;13243;50.888;4.724;2023-04-24T01:12:58;9.60;99.90
25302;DHT22;13243;50.888;4.724;2023-04-24T01:18:00;9.60;99.90
25302;DHT22;13243;50.888;4.724;2023-04-24T01:23:02;9.60;99.90
25302;DHT22;13243;50.888;4.724;2023-04-24T01:28:04;9.60;99.90
25302;DHT22;13243;50.888;4.724;2023-04-24T01:33:06;9.60;99.90
25302;DHT22;13243;50.888;4.724;2023-04-24T01:38:08;9.60;99.90
25302;DHT22;13243;50.888;4.724;2023-04-24T01:43:10;9.60;99.90
25302;DHT22;13243;50.888;4.724;2023-04-24T01:48:13;9.60;99.90
25302;DHT22;13243;50.888;4.724;2023-04-24T01:53:15;9.50;99.90
25302;DHT22;13243;50.888;4.724;2023-04-24T01:58:17;9.40;99.90
25302;DHT22;13243;50.888;4.724;2023-04-24T02:03:19;9.20;99.90
25302;DHT22;13243;50.888;4.724;2023-04-24T02:08:21;9.30;99.90
25302;DHT22;13243;50.888;4.724;2023-04-24T02:13:22;9.30;99.90
25302;DHT22;13243;50.888;4.724;2023-04-24T02:18:24;9.20;99.90
25302;DHT22;13243;50.888;4.724;2023-04-24T02:23:26;9.20;99.90
25302;DHT22;13243;50.888;4.724;2023-04-24T02:28:28;9.30;99.90
25302;DHT22;13243;50.888;4.724;2023-04-24T02:33:30;9.30;99.90
25302;DHT22;13243;50.888;4.724;2023-04-24T02:38:33;9.10;99.90
25302;DHT22;13243;50.888;4.724;2023-04-24T02:43:35;9.10;99.90
25302;DHT22;13243;50.888;4.724;2023-04-24T02:48:37;9.10;99.90
25302;DHT22;13243;50.888;4.724;2023-04-24T02:53:39;9.20;99.90
25302;DHT22;13243;50.888;4.724;2023-04-24T02:58:41;9.10;99.90
25302;DHT22;13243;50.888;4.724;2023-04-24T03:03:43;9.00;99.90
25302;DHT22;13243;50.888;4.724;2023-04-24T03:08:46;8.90;99.90
25302;DHT22;13243;50.888;4.724;2023-04-24T03:13:47;8.90;99.90
25302;DHT22;13243;50.888;4.724;2023-04-24T03:18:49;8.90;99.90
25302;DHT22;13243;50.888;4.724;2023-04-24T03:23:51;9.00;99.90
25302;DHT22;13243;50.888;4.724;2023-04-24T03:28:53;8.90;99.90
25302;DHT22;13243;50.888;4.724;2023-04-24T03:33:55;9.00;99.90
25302;DHT22;13243;50.888;4.724;2023-04-24T03:38:57;8.90;99.90
25302;DHT22;13243;50.888;4.724;2023-04-24T03:43:59;8.90;99.90
25302;DHT22;13243;50.888;4.724;2023-04-24T03:49:01;8.90;99.90
25302;DHT22;13243;50.888;4.724;2023-04-24T03:54:04;8.90;99.90
25302;DHT22;13243;50.888;4.724;2023-04-24T03:59:06;8.80;99.90
25302;DHT22;13243;50.888;4.724;2023-04-24T04:04:08;8.70;99.90
25302;DHT22;13243;50.888;4.724;2023-04-24T04:09:10;8.70;99.90
25302;DHT22;13243;50.888;4.724;2023-04-24T04:14:12;8.70;99.90
25302;DHT22;13243;50.888;4.724;2023-04-24T04:19:14;8.70;99.90
25302;DHT22;13243;50.888;4.724;2023-04-24T04:24:16;8.80;99.90
25302;DHT22;13243;50.888;4.724;2023-04-24T04:29:18;8.80;99.90
25302;DHT22;13243;50.888;4.724;2023-04-24T04:34:20;8.80;99.90
25302;DHT22;13243;50.888;4.724;2023-04-24T04:39:21;8.80;99.90
25302;DHT22;13243;50.888;4.724;2023-04-24T04:44:23;8.90;99.90
25302;DHT22;13243;50.888;4.724;2023-04-24T04:49:25;8.90;99.90
25302;DHT22;13243;50.888;4.724;2023-04-24T04:54:30;8.90;99.90
25302;DHT22;13243;50.888;4.724;2023-04-24T04:59:31;8.90;99.90
25302;DHT22;13243;50.888;4.724;2023-04-24T05:04:33;8.80;99.90
25302;DHT22;13243;50.888;4.724;2023-04-24T05:09:36;8.80;99.90
25302;DHT22;13243;50.888;4.724;2023-04-24T05:14:37;8.80;99.90
25302;DHT22;13243;50.888;4.724;2023-04-24T05:19:39;8.70;99.90
25302;DHT22;13243;50.888;4.724;2023-04-24T05:24:42;8.80;99.90
25302;DHT22;13243;50.888;4.724;2023-04-24T05:29:43;8.70;99.90
25302;DHT22;13243;50.888;4.724;2023-04-24T05:34:46;8.70;99.90
25302;DHT22;13243;50.888;4.724;2023-04-24T05:39:48;8.70;99.90
25302;DHT22;13243;50.888;4.724;2023-04-24T05:44:50;8.60;99.90
25302;DHT22;13243;50.888;4.724;2023-04-24T05:49:54;8.60;99.90
25302;DHT22;13243;50.888;4.724;2023-04-24T05:54:56;8.60;99.90
25302;DHT22;13243;50.888;4.724;2023-04-24T05:59:58;8.60;99.90
25302;DHT22;13243;50.888;4.724;2023-04-24T06:04:59;8.60;99.90
25302;DHT22;13243;50.888;4.724;2023-04-24T06:10:02;8.50;99.90
25302;DHT22;13243;50.888;4.724;2023-04-24T06:15:04;8.60;99.90
25302;DHT22;13243;50.888;4.724;2023-04-24T06:20:06;8.50;99.90
25302;DHT22;13243;50.888;4.724;2023-04-24T06:25:09;8.50;99.90
25302;DHT22;13243;50.888;4.724;2023-04-24T06:30:11;8.60;99.90
25302;DHT22;13243;50.888;4.724;2023-04-24T06:35:13;8.50;99.90
25302;DHT22;13243;50.888;4.724;2023-04-24T06:40:15;8.50;99.90
25302;DHT22;13243;50.888;4.724;2023-04-24T06:45:20;8.60;99.90
25302;DHT22;13243;50.888;4.724;2023-04-24T06:50:21;8.60;99.90
25302;DHT22;13243;50.888;4.724;2023-04-24T06:55:23;8.60;99.90
25302;DHT22;13243;50.888;4.724;2023-04-24T07:00:25;8.50;99.90
25302;DHT22;13243;50.888;4.724;2023-04-24T07:05:27;8.60;99.90
25302;DHT22;13243;50.888;4.724;2023-04-24T07:10:29;8.60;99.90
25302;DHT22;13243;50.888;4.724;2023-04-24T07:15:31;8.70;99.90
25302;DHT22;13243;50.888;4.724;2023-04-24T07:20:34;8.70;99.90
25302;DHT22;13243;50.888;4.724;2023-04-24T07:25:36;8.80;99.90
25302;DHT22;13243;50.888;4.724;2023-04-24T07:30:38;8.80;99.90
25302;DHT22;13243;50.888;4.724;2023-04-24T07:35:39;8.80;99.90
25302;DHT22;13243;50.888;4.724;2023-04-24T07:40:41;8.90;99.90
25302;DHT22;13243;50.888;4.724;2023-04-24T07:45:44;8.90;99.90
25302;DHT22;13243;50.888;4.724;2023-04-24T07:50:46;9.00;99.90
25302;DHT22;13243;50.888;4.724;2023-04-24T07:55:48;8.80;99.90
25302;DHT22;13243;50.888;4.724;2023-04-24T08:00:50;8.90;99.90
25302;DHT22;13243;50.888;4.724;2023-04-24T08:05:52;9.00;99.90
25302;DHT22;13243;50.888;4.724;2023-04-24T08:10:54;8.90;99.90
25302;DHT22;13243;50.888;4.724;2023-04-24T08:15:56;9.10;99.90
25302;DHT22;13243;50.888;4.724;2023-04-24T08:20:58;9.20;99.90
25302;DHT22;13243;50.888;4.724;2023-04-24T08:26:03;9.50;99.90
25302;DHT22;13243;50.888;4.724;2023-04-24T08:31:05;9.60;99.90
25302;DHT22;13243;50.888;4.724;2023-04-24T08:36:07;9.50;99.90
25302;DHT22;13243;50.888;4.724;2023-04-24T08:41:09;9.50;99.90
25302;DHT22;13243;50.888;4.724;2023-04-24T08:46:13;9.50;99.90
25302;DHT22;13243;50.888;4.724;2023-04-24T08:51:15;9.60;99.90
25302;DHT22;13243;50.888;4.724;2023-04-24T08:56:17;9.70;99.90
25302;DHT22;13243;50.888;4.724;2023-04-24T09:01:20;9.90;99.90
25302;DHT22;13243;50.888;4.724;2023-04-24T09:06:22;10.30;99.90
25302;DHT22;13243;50.888;4.724;2023-04-24T09:11:25;10.10;99.90
25302;DHT22;13243;50.888;4.724;2023-04-24T09:16:27;9.90;99.90
25302;DHT22;13243;50.888;4.724;2023-04-24T09:21:34;10.00;99.90
25302;DHT22;13243;50.888;4.724;2023-04-24T09:26:36;10.10;99.90
25302;DHT22;13243;50.888;4.724;2023-04-24T09:31:38;10.20;99.90
25302;DHT22;13243;50.888;4.724;2023-04-24T09:36:42;10.70;99.90
25302;DHT22;13243;50.888;4.724;2023-04-24T09:42:03;11.10;99.90
25302;DHT22;13243;50.888;4.724;2023-04-24T09:47:08;11.20;99.90
25302;DHT22;13243;50.888;4.724;2023-04-24T09:52:11;10.80;99.90
25302;DHT22;13243;50.888;4.724;2023-04-24T09:57:14;10.70;99.90
25302;DHT22;13243;50.888;4.724;2023-04-24T10:02:20;10.60;99.90
25302;DHT22;13243;50.888;4.724;2023-04-24T10:07:25;10.70;99.90
25302;DHT22;13243;50.888;4.724;2023-04-24T10:12:27;11.50;99.90
25302;DHT22;13243;50.888;4.724;2023-04-24T10:17:30;11.80;99.90
25302;DHT22;13243;50.888;4.724;2023-04-24T10:22:33;11.40;99.90
25302;DHT22;13243;50.888;4.724;2023-04-24T10:27:36;11.30;99.90
25302;DHT22;13243;50.888;4.724;2023-04-24T10:32:39;11.40;99.90
25302;DHT22;13243;50.888;4.724;2023-04-24T10:37:48;11.70;99.90
25302;DHT22;13243;50.888;4.724;2023-04-24T10:42:52;12.20;99.90
25302;DHT22;13243;50.888;4.724;2023-04-24T10:48:02;12.20;99.90
25302;DHT22;13243;50.888;4.724;2023-04-24T10:53:11;11.80;99.90
25302;DHT22;13243;50.888;4.724;2023-04-24T10:58:14;11.70;99.90
25302;DHT22;13243;50.888;4.724;2023-04-24T11:03:28;11.60;99.90
25302;DHT22;13243;50.888;4.724;2023-04-24T11:08:39;11.20;99.90
25302;DHT22;13243;50.888;4.724;2023-04-24T11:19:04;11.30;99.90
25302;DHT22;13243;50.888;4.724;2023-04-24T11:24:48;11.50;99.90
25302;DHT22;13243;50.888;4.724;2023-04-24T11:40:10;11.80;99.90
25302;DHT22;13243;50.888;4.724;2023-04-24T11:45:18;11.70;99.90
25302;DHT22;13243;50.888;4.724;2023-04-24T11:50:23;11.80;99.90
25302;DHT22;13243;50.888;4.724;2023-04-24T11:55:28;11.90;99.90
25302;DHT22;13243;50.888;4.724;2023-04-24T12:00:32;12.00;99.90
25302;DHT22;13243;50.888;4.724;2023-04-24T12:05:36;12.10;99.90
25302;DHT22;13243;50.888;4.724;2023-04-24T12:10:38;12.00;99.90
25302;DHT22;13243;50.888;4.724;2023-04-24T12:15:40;12.30;99.90
25302;DHT22;13243;50.888;4.724;2023-04-24T12:20:42;12.20;99.90
25302;DHT22;13243;50.888;4.724;2023-04-24T12:25:44;12.60;99.90
25302;DHT22;13243;50.888;4.724;2023-04-24T12:30:49;12.80;99.90
25302;DHT22;13243;50.888;4.724;2023-04-24T12:35:52;12.70;99.90
25302;DHT22;13243;50.888;4.724;2023-04-24T12:41:06;13.70;99.90
25302;DHT22;13243;50.888;4.724;2023-04-24T12:46:08;14.10;99.90
25302;DHT22;13243;50.888;4.724;2023-04-24T12:51:10;14.20;99.90
25302;DHT22;13243;50.888;4.724;2023-04-24T12:56:12;14.80;99.90
25302;DHT22;13243;50.888;4.724;2023-04-24T13:01:14;14.60;99.90
25302;DHT22;13243;50.888;4.724;2023-04-24T13:06:16;14.50;99.90
25302;DHT22;13243;50.888;4.724;2023-04-24T13:11:18;16.10;99.90
25302;DHT22;13243;50.888;4.724;2023-04-24T13:16:19;15.70;99.90
25302;DHT22;13243;50.888;4.724;2023-04-24T13:21:21;14.80;99.90
25302;DHT22;13243;50.888;4.724;2023-04-24T13:26:23;14.20;99.90
25302;DHT22;13243;50.888;4.724;2023-04-24T13:31:25;14.00;99.90
25302;DHT22;13243;50.888;4.724;2023-04-24T13:36:27;14.10;99.90
25302;DHT22;13243;50.888;4.724;2023-04-24T13:41:30;13.50;99.90
25302;DHT22;13243;50.888;4.724;2023-04-24T13:46:32;14.60;99.90
25302;DHT22;13243;50.888;4.724;2023-04-24T13:51:34;14.20;99.90
25302;DHT22;13243;50.888;4.724;2023-04-24T13:56:35;16.00;99.90
25302;DHT22;13243;50.888;4.724;2023-04-24T14:01:37;16.70;99.90
25302;DHT22;13243;50.888;4.724;2023-04-24T14:06:39;16.30;99.90
25302;DHT22;13243;50.888;4.724;2023-04-24T14:11:41;16.50;99.90
25302;DHT22;13243;50.888;4.724;2023-04-24T14:16:43;16.00;99.90
25302;DHT22;13243;50.888;4.724;2023-04-24T14:21:45;16.70;99.90
25302;DHT22;13243;50.888;4.724;2023-04-24T14:26:47;16.70;99.90
25302;DHT22;13243;50.888;4.724;2023-04-24T14:31:49;15.90;99.90
25302;DHT22;13243;50.888;4.724;2023-04-24T14:36:52;17.60;99.90
25302;DHT22;13243;50.888;4.724;2023-04-24T14:41:54;17.50;99.90
25302;DHT22;13243;50.888;4.724;2023-04-24T14:46:56;16.80;99.90
25302;DHT22;13243;50.888;4.724;2023-04-24T14:51:58;15.90;99.90
25302;DHT22;13243;50.888;4.724;2023-04-24T14:57:00;14.90;99.90
25302;DHT22;13243;50.888;4.724;2023-04-24T15:02:03;14.70;99.90
25302;DHT22;13243;50.888;4.724;2023-04-24T15:07:16;14.60;99.90
25302;DHT22;13243;50.888;4.724;2023-04-24T15:12:18;14.50;99.90
25302;DHT22;13243;50.888;4.724;2023-04-24T15:17:20;14.30;99.90
25302;DHT22;13243;50.888;4.724;2023-04-24T15:22:22;14.30;99.90
25302;DHT22;13243;50.888;4.724;2023-04-24T15:27:24;14.10;99.90
25302;DHT22;13243;50.888;4.724;2023-04-24T15:32:25;14.00;99.90
25302;DHT22;13243;50.888;4.724;2023-04-24T15:37:27;14.00;99.90
25302;DHT22;13243;50.888;4.724;2023-04-24T15:42:29;14.00;99.90
25302;DHT22;13243;50.888;4.724;2023-04-24T15:47:32;13.80;99.90
25302;DHT22;13243;50.888;4.724;2023-04-24T15:52:34;13.40;99.90
25302;DHT22;13243;50.888;4.724;2023-04-24T15:57:36;13.60;99.90
25302;DHT22;13243;50.888;4.724;2023-04-24T16:02:38;13.20;99.90
25302;DHT22;13243;50.888;4.724;2023-04-24T16:07:41;13.40;99.90
25302;DHT22;13243;50.888;4.724;2023-04-24T16:12:43;13.30;99.90
25302;DHT22;13243;50.888;4.724;2023-04-24T16:17:45;13.30;99.90
25302;DHT22;13243;50.888;4.724;2023-04-24T16:22:47;13.60;99.90
25302;DHT22;13243;50.888;4.724;2023-04-24T16:27:49;13.40;99.90
25302;DHT22;13243;50.888;4.724;2023-04-24T16:32:51;14.20;99.90
25302;DHT22;13243;50.888;4.724;2023-04-24T16:37:54;14.30;99.90
25302;DHT22;13243;50.888;4.724;2023-04-24T16:42:56;14.40;99.90
25302;DHT22;13243;50.888;4.724;2023-04-24T16:47:58;13.80;99.90
25302;DHT22;13243;50.888;4.724;2023-04-24T16:53:00;13.70;99.90
25302;DHT22;13243;50.888;4.724;2023-04-24T16:58:01;13.30;99.90
25302;DHT22;13243;50.888;4.724;2023-04-24T17:03:03;13.10;99.90
25302;DHT22;13243;50.888;4.724;2023-04-24T17:08:05;13.20;99.90
25302;DHT22;13243;50.888;4.724;2023-04-24T17:13:07;13.20;99.90
25302;DHT22;13243;50.888;4.724;2023-04-24T17:18:10;13.30;99.90
25302;DHT22;13243;50.888;4.724;2023-04-24T17:23:12;14.50;99.90
25302;DHT22;13243;50.888;4.724;2023-04-24T17:28:31;15.40;99.90
25302;DHT22;13243;50.888;4.724;2023-04-24T17:33:33;15.20;99.90
25302;DHT22;13243;50.888;4.724;2023-04-24T17:38:35;14.40;99.90
25302;DHT22;13243;50.888;4.724;2023-04-24T17:43:37;13.80;99.90
25302;DHT22;13243;50.888;4.724;2023-04-24T17:48:39;13.50;99.90
25302;DHT22;13243;50.888;4.724;2023-04-24T17:53:41;13.20;99.90
25302;DHT22;13243;50.888;4.724;2023-04-24T17:58:43;12.80;99.90
25302;DHT22;13243;50.888;4.724;2023-04-24T18:03:44;12.80;99.90
25302;DHT22;13243;50.888;4.724;2023-04-24T18:08:47;12.60;99.90
25302;DHT22;13243;50.888;4.724;2023-04-24T18:13:49;12.50;99.90
25302;DHT22;13243;50.888;4.724;2023-04-24T18:18:52;12.30;99.90
25302;DHT22;13243;50.888;4.724;2023-04-24T18:23:54;12.20;99.90
25302;DHT22;13243;50.888;4.724;2023-04-24T18:28:56;12.20;99.90
25302;DHT22;13243;50.888;4.724;2023-04-24T18:33:59;12.20;99.90
25302;DHT22;13243;50.888;4.724;2023-04-24T18:39:01;12.00;99.90
25302;DHT22;13243;50.888;4.724;2023-04-24T18:44:03;11.90;99.90
25302;DHT22;13243;50.888;4.724;2023-04-24T18:49:05;11.90;99.90
25302;DHT22;13243;50.888;4.724;2023-04-24T18:54:07;11.80;99.90
25302;DHT22;13243;50.888;4.724;2023-04-24T18:59:09;11.70;99.90
25302;DHT22;13243;50.888;4.724;2023-04-24T19:04:11;11.70;99.90
25302;DHT22;13243;50.888;4.724;2023-04-24T19:09:14;11.60;99.90
25302;DHT22;13243;50.888;4.724;2023-04-24T19:14:16;11.50;99.90
25302;DHT22;13243;50.888;4.724;2023-04-24T19:19:19;11.50;99.90
25302;DHT22;13243;50.888;4.724;2023-04-24T19:24:23;11.50;99.90
25302;DHT22;13243;50.888;4.724;2023-04-24T19:29:25;11.40;99.90
25302;DHT22;13243;50.888;4.724;2023-04-24T19:34:27;11.10;99.90
25302;DHT22;13243;50.888;4.724;2023-04-24T19:39:31;11.20;99.90
25302;DHT22;13243;50.888;4.724;2023-04-24T19:44:33;10.90;99.90
25302;DHT22;13243;50.888;4.724;2023-04-24T19:49:34;10.90;99.90
25302;DHT22;13243;50.888;4.724;2023-04-24T19:54:36;11.00;99.90
25302;DHT22;13243;50.888;4.724;2023-04-24T19:59:38;11.00;99.90
25302;DHT22;13243;50.888;4.724;2023-04-24T20:04:40;11.00;99.90
25302;DHT22;13243;50.888;4.724;2023-04-24T20:09:43;11.00;99.90
25302;DHT22;13243;50.888;4.724;2023-04-24T20:14:46;10.90;99.90
25302;DHT22;13243;50.888;4.724;2023-04-24T20:19:48;10.90;99.90
25302;DHT22;13243;50.888;4.724;2023-04-24T20:24:50;10.80;99.90
25302;DHT22;13243;50.888;4.724;2023-04-24T20:29:52;10.80;99.90
25302;DHT22;13243;50.888;4.724;2023-04-24T20:34:55;10.70;99.90
25302;DHT22;13243;50.888;4.724;2023-04-24T20:39:56;10.80;99.90
25302;DHT22;13243;50.888;4.724;2023-04-24T20:45:01;10.70;99.90
25302;DHT22;13243;50.888;4.724;2023-04-24T20:50:04;10.70;99.90
25302;DHT22;13243;50.888;4.724;2023-04-24T20:55:07;10.60;99.90
25302;DHT22;13243;50.888;4.724;2023-04-24T21:00:10;10.60;99.90
25302;DHT22;13243;50.888;4.724;2023-04-24T21:05:13;10.50;99.90
25302;DHT22;13243;50.888;4.724;2023-04-24T21:10:15;10.50;99.90
25302;DHT22;13243;50.888;4.724;2023-04-24T21:15:17;10.50;99.90
25302;DHT22;13243;50.888;4.724;2023-04-24T21:20:19;10.40;99.90
25302;DHT22;13243;50.888;4.724;2023-04-24T21:25:21;10.50;99.90
25302;DHT22;13243;50.888;4.724;2023-04-24T21:30:23;10.50;99.90
25302;DHT22;13243;50.888;4.724;2023-04-24T21:35:25;10.50;99.90
25302;DHT22;13243;50.888;4.724;2023-04-24T21:40:28;10.30;99.90
25302;DHT22;13243;50.888;4.724;2023-04-24T21:45:30;10.30;99.90
25302;DHT22;13243;50.888;4.724;2023-04-24T21:50:32;10.30;99.90
25302;DHT22;13243;50.888;4.724;2023-04-24T21:55:33;10.30;99.90
25302;DHT22;13243;50.888;4.724;2023-04-24T22:00:35;10.30;99.90
25302;DHT22;13243;50.888;4.724;2023-04-24T22:05:37;10.20;99.90
25302;DHT22;13243;50.888;4.724;2023-04-24T22:10:39;10.00;99.90
25302;DHT22;13243;50.888;4.724;2023-04-24T22:15:41;10.10;99.90
25302;DHT22;13243;50.888;4.724;2023-04-24T22:20:43;10.10;99.90
25302;DHT22;13243;50.888;4.724;2023-04-24T22:25:45;10.00;99.90
25302;DHT22;13243;50.888;4.724;2023-04-24T22:30:47;9.90;99.90
25302;DHT22;13243;50.888;4.724;2023-04-24T22:35:49;9.80;99.90
25302;DHT22;13243;50.888;4.724;2023-04-24T22:40:51;9.70;99.90
25302;DHT22;13243;50.888;4.724;2023-04-24T22:45:53;9.80;99.90
25302;DHT22;13243;50.888;4.724;2023-04-24T22:50:54;9.80;99.90
25302;DHT22;13243;50.888;4.724;2023-04-24T22:55:56;9.70;99.90
25302;DHT22;13243;50.888;4.724;2023-04-24T23:00:58;9.60;99.90
25302;DHT22;13243;50.888;4.724;2023-04-24T23:06:00;9.60;99.90
25302;DHT22;13243;50.888;4.724;2023-04-24T23:11:02;9.60;99.90
25302;DHT22;13243;50.888;4.724;2023-04-24T23:16:04;9.30;99.90
25302;DHT22;13243;50.888;4.724;2023-04-24T23:21:06;9.20;99.90
25302;DHT22;13243;50.888;4.724;2023-04-24T23:26:08;9.10;99.90
25302;DHT22;13243;50.888;4.724;2023-04-24T23:31:10;9.30;99.90
25302;DHT22;13243;50.888;4.724;2023-04-24T23:36:12;9.20;99.90
25302;DHT22;13243;50.888;4.724;2023-04-24T23:41:15;9.20;99.90
25302;DHT22;13243;50.888;4.724;2023-04-24T23:46:17;9.10;99.90
25302;DHT22;13243;50.888;4.724;2023-04-24T23:51:19;9.10;99.90
25302;DHT22;13243;50.888;4.724;2023-04-24T23:56:21;9.20;99.90
